sensor_id;sensor_type;location;lat;lon;timestamp;pressure;altitude;pressure_sealevel;temperature;humidity
67545;BME280;54380;47.770;11.150;2022-07-23T00:00:17;94911.28;;;24.86;52.59
67545;BME280;54380;47.770;11.150;2022-07-23T00:02:44;94925.78;;;24.94;52.22
67545;BME280;54380;47.770;11.150;2022-07-23T00:05:11;94935.53;;;24.98;52.12
67545;BME280;54380;47.770;11.150;2022-07-23T00:07:40;94938.81;;;25.04;51.60
67545;BME280;54380;47.770;11.150;2022-07-23T00:10:07;94930.47;;;25.09;51.45
67545;BME280;54380;47.770;11.150;2022-07-23T00:12:34;94930.69;;;25.16;50.99
67545;BME280;54380;47.770;11.150;2022-07-23T00:15:03;94925.59;;;25.27;50.98
67545;BME280;54380;47.770;11.150;2022-07-23T00:17:31;94943.16;;;25.33;50.93
67545;BME280;54380;47.770;11.150;2022-07-23T00:19:58;94944.72;;;25.34;50.63
67545;BME280;54380;47.770;11.150;2022-07-23T00:22:25;94940.53;;;25.37;50.69
67545;BME280;54380;47.770;11.150;2022-07-23T00:24:53;94954.94;;;25.41;50.62
67545;BME280;54380;47.770;11.150;2022-07-23T00:27:40;94962.25;;;25.40;50.28
67545;BME280;54380;47.770;11.150;2022-07-23T00:30:08;94964.16;;;25.40;50.19
67545;BME280;54380;47.770;11.150;2022-07-23T00:32:45;94979.25;;;25.41;50.02
67545;BME280;54380;47.770;11.150;2022-07-23T00:35:22;95004.91;;;25.35;50.25
67545;BME280;54380;47.770;11.150;2022-07-23T00:37:49;95027.56;;;25.30;50.18
67545;BME280;54380;47.770;11.150;2022-07-23T00:40:17;95036.25;;;25.24;49.81
67545;BME280;54380;47.770;11.150;2022-07-23T00:42:44;95030.94;;;25.15;49.97
67545;BME280;54380;47.770;11.150;2022-07-23T00:45:12;95038.91;;;25.11;50.11
67545;BME280;54380;47.770;11.150;2022-07-23T00:47:39;95064.34;;;25.10;49.99
67545;BME280;54380;47.770;11.150;2022-07-23T00:50:08;95082.13;;;25.11;50.24
67545;BME280;54380;47.770;11.150;2022-07-23T00:52:37;95110.28;;;25.10;50.09
67545;BME280;54380;47.770;11.150;2022-07-23T00:55:05;95119.38;;;25.06;50.40
67545;BME280;54380;47.770;11.150;2022-07-23T00:57:35;95143.78;;;24.97;49.84
67545;BME280;54380;47.770;11.150;2022-07-23T01:00:03;95142.34;;;25.00;48.76
67545;BME280;54380;47.770;11.150;2022-07-23T01:02:30;95169.13;;;25.05;47.63
67545;BME280;54380;47.770;11.150;2022-07-23T01:04:57;95158.41;;;24.96;46.42
67545;BME280;54380;47.770;11.150;2022-07-23T01:07:24;95145.22;;;24.82;45.95
67545;BME280;54380;47.770;11.150;2022-07-23T01:09:51;95129.91;;;24.74;45.26
67545;BME280;54380;47.770;11.150;2022-07-23T01:12:18;95148.75;;;24.62;44.71
67545;BME280;54380;47.770;11.150;2022-07-23T01:14:53;95139.19;;;24.52;44.36
67545;BME280;54380;47.770;11.150;2022-07-23T01:17:20;95134.84;;;24.39;44.04
67545;BME280;54380;47.770;11.150;2022-07-23T01:19:47;95140.44;;;24.34;44.08
67545;BME280;54380;47.770;11.150;2022-07-23T01:22:14;95130.44;;;24.34;43.67
67545;BME280;54380;47.770;11.150;2022-07-23T01:24:46;95128.06;;;24.32;43.46
67545;BME280;54380;47.770;11.150;2022-07-23T01:27:13;95103.00;;;24.32;43.12
67545;BME280;54380;47.770;11.150;2022-07-23T01:29:40;95108.41;;;24.32;43.44
67545;BME280;54380;47.770;11.150;2022-07-23T01:32:13;95106.06;;;24.30;42.97
67545;BME280;54380;47.770;11.150;2022-07-23T01:34:40;95099.53;;;24.31;43.23
67545;BME280;54380;47.770;11.150;2022-07-23T01:37:07;95093.66;;;24.29;43.38
67545;BME280;54380;47.770;11.150;2022-07-23T01:39:35;95102.69;;;24.34;43.45
67545;BME280;54380;47.770;11.150;2022-07-23T01:42:03;95097.59;;;24.32;43.09
67545;BME280;54380;47.770;11.150;2022-07-23T01:44:31;95108.47;;;24.23;42.87
67545;BME280;54380;47.770;11.150;2022-07-23T01:46:58;95118.81;;;24.21;43.23
67545;BME280;54380;47.770;11.150;2022-07-23T01:49:25;95132.66;;;24.20;42.88
67545;BME280;54380;47.770;11.150;2022-07-23T01:51:57;95145.66;;;24.18;42.98
67545;BME280;54380;47.770;11.150;2022-07-23T01:54:47;95154.84;;;24.17;43.41
67545;BME280;54380;47.770;11.150;2022-07-23T01:57:15;95152.63;;;24.19;42.71
67545;BME280;54380;47.770;11.150;2022-07-23T01:59:42;95144.88;;;24.17;42.51
67545;BME280;54380;47.770;11.150;2022-07-23T02:02:09;95142.75;;;24.23;43.07
67545;BME280;54380;47.770;11.150;2022-07-23T02:04:36;95145.59;;;24.26;42.56
67545;BME280;54380;47.770;11.150;2022-07-23T02:07:04;95156.25;;;24.23;42.66
67545;BME280;54380;47.770;11.150;2022-07-23T02:09:31;95139.03;;;24.15;42.75
67545;BME280;54380;47.770;11.150;2022-07-23T02:11:58;95143.84;;;24.09;43.23
67545;BME280;54380;47.770;11.150;2022-07-23T02:14:26;95150.53;;;24.03;44.37
67545;BME280;54380;47.770;11.150;2022-07-23T02:16:53;95149.94;;;23.98;45.50
67545;BME280;54380;47.770;11.150;2022-07-23T02:19:20;95149.47;;;23.96;46.32
67545;BME280;54380;47.770;11.150;2022-07-23T02:21:47;95143.47;;;23.90;46.46
67545;BME280;54380;47.770;11.150;2022-07-23T02:24:14;95140.31;;;23.88;46.97
67545;BME280;54380;47.770;11.150;2022-07-23T02:26:42;95150.47;;;23.91;47.64
67545;BME280;54380;47.770;11.150;2022-07-23T02:29:09;95154.81;;;23.83;47.90
67545;BME280;54380;47.770;11.150;2022-07-23T02:31:37;95168.69;;;23.64;47.58
67545;BME280;54380;47.770;11.150;2022-07-23T02:34:06;95186.09;;;23.37;47.59
67545;BME280;54380;47.770;11.150;2022-07-23T02:36:37;95182.22;;;23.17;48.09
67545;BME280;54380;47.770;11.150;2022-07-23T02:39:05;95180.84;;;23.03;48.87
67545;BME280;54380;47.770;11.150;2022-07-23T02:41:34;95169.28;;;23.02;48.80
67545;BME280;54380;47.770;11.150;2022-07-23T02:44:00;95170.06;;;23.03;49.49
67545;BME280;54380;47.770;11.150;2022-07-23T02:46:27;95169.13;;;22.98;49.76
67545;BME280;54380;47.770;11.150;2022-07-23T02:48:57;95155.53;;;22.86;50.34
67545;BME280;54380;47.770;11.150;2022-07-23T02:51:24;95147.50;;;22.69;51.08
67545;BME280;54380;47.770;11.150;2022-07-23T02:53:56;95133.78;;;22.53;51.13
67545;BME280;54380;47.770;11.150;2022-07-23T02:56:24;95137.75;;;22.47;51.08
67545;BME280;54380;47.770;11.150;2022-07-23T02:58:50;95126.34;;;22.50;51.18
67545;BME280;54380;47.770;11.150;2022-07-23T03:01:17;95131.25;;;22.56;51.57
67545;BME280;54380;47.770;11.150;2022-07-23T03:03:46;95129.50;;;22.61;51.21
67545;BME280;54380;47.770;11.150;2022-07-23T03:06:14;95129.78;;;22.59;51.30
67545;BME280;54380;47.770;11.150;2022-07-23T03:08:41;95126.03;;;22.51;51.16
67545;BME280;54380;47.770;11.150;2022-07-23T03:11:08;95106.72;;;22.49;51.41
67545;BME280;54380;47.770;11.150;2022-07-23T03:13:39;95082.53;;;22.49;51.82
67545;BME280;54380;47.770;11.150;2022-07-23T03:16:06;95078.91;;;22.37;52.96
67545;BME280;54380;47.770;11.150;2022-07-23T03:18:35;95057.25;;;22.16;53.80
67545;BME280;54380;47.770;11.150;2022-07-23T03:21:08;95027.72;;;21.98;54.25
67545;BME280;54380;47.770;11.150;2022-07-23T03:23:55;94979.06;;;21.82;55.55
67545;BME280;54380;47.770;11.150;2022-07-23T03:26:28;94947.16;;;21.63;56.17
67545;BME280;54380;47.770;11.150;2022-07-23T03:28:55;94889.84;;;21.51;56.13
67545;BME280;54380;47.770;11.150;2022-07-23T03:31:26;94846.13;;;21.41;56.74
67545;BME280;54380;47.770;11.150;2022-07-23T03:33:53;94848.47;;;21.17;57.32
67545;BME280;54380;47.770;11.150;2022-07-23T03:36:19;94867.78;;;21.01;58.57
67545;BME280;54380;47.770;11.150;2022-07-23T03:38:49;94875.22;;;20.96;59.10
67545;BME280;54380;47.770;11.150;2022-07-23T03:41:20;94884.81;;;20.88;59.46
67545;BME280;54380;47.770;11.150;2022-07-23T03:43:47;94879.91;;;20.90;59.85
67545;BME280;54380;47.770;11.150;2022-07-23T03:46:17;94875.81;;;20.93;60.09
67545;BME280;54380;47.770;11.150;2022-07-23T03:48:44;94883.25;;;20.96;60.78
67545;BME280;54380;47.770;11.150;2022-07-23T03:51:13;94865.72;;;20.98;60.50
67545;BME280;54380;47.770;11.150;2022-07-23T03:53:40;94864.28;;;21.01;60.52
67545;BME280;54380;47.770;11.150;2022-07-23T03:56:07;94868.25;;;21.12;60.58
67545;BME280;54380;47.770;11.150;2022-07-23T03:58:35;94873.28;;;21.14;59.85
67545;BME280;54380;47.770;11.150;2022-07-23T04:01:02;94874.06;;;21.14;59.24
67545;BME280;54380;47.770;11.150;2022-07-23T04:03:29;94877.84;;;21.22;58.40
67545;BME280;54380;47.770;11.150;2022-07-23T04:05:56;94867.13;;;21.22;57.64
67545;BME280;54380;47.770;11.150;2022-07-23T04:08:23;94878.31;;;21.33;57.41
67545;BME280;54380;47.770;11.150;2022-07-23T04:10:51;94890.81;;;21.46;57.25
67545;BME280;54380;47.770;11.150;2022-07-23T04:13:18;94889.69;;;21.56;56.69
67545;BME280;54380;47.770;11.150;2022-07-23T04:15:47;94892.53;;;21.59;56.18
67545;BME280;54380;47.770;11.150;2022-07-23T04:18:15;94886.81;;;21.61;56.19
67545;BME280;54380;47.770;11.150;2022-07-23T04:20:52;94879.22;;;21.72;55.88
67545;BME280;54380;47.770;11.150;2022-07-23T04:23:19;94872.72;;;21.81;55.54
67545;BME280;54380;47.770;11.150;2022-07-23T04:25:47;94877.25;;;21.89;55.15
67545;BME280;54380;47.770;11.150;2022-07-23T04:28:14;94872.50;;;21.95;55.04
67545;BME280;54380;47.770;11.150;2022-07-23T04:30:41;94873.44;;;21.99;54.95
67545;BME280;54380;47.770;11.150;2022-07-23T04:33:10;94876.72;;;22.05;55.00
67545;BME280;54380;47.770;11.150;2022-07-23T04:35:38;94874.03;;;22.05;54.88
67545;BME280;54380;47.770;11.150;2022-07-23T04:38:12;94872.75;;;22.11;54.86
67545;BME280;54380;47.770;11.150;2022-07-23T04:40:39;94871.63;;;22.21;54.75
67545;BME280;54380;47.770;11.150;2022-07-23T04:43:06;94882.78;;;22.31;54.78
67545;BME280;54380;47.770;11.150;2022-07-23T04:45:39;94888.31;;;22.35;54.61
67545;BME280;54380;47.770;11.150;2022-07-23T04:48:10;94890.69;;;22.37;54.51
67545;BME280;54380;47.770;11.150;2022-07-23T04:50:38;94904.44;;;22.35;54.53
67545;BME280;54380;47.770;11.150;2022-07-23T04:53:13;94914.75;;;22.33;54.39
67545;BME280;54380;47.770;11.150;2022-07-23T04:55:41;94912.38;;;22.31;54.45
67545;BME280;54380;47.770;11.150;2022-07-23T04:58:08;94900.38;;;22.29;54.63
67545;BME280;54380;47.770;11.150;2022-07-23T05:00:35;94895.47;;;22.31;54.56
67545;BME280;54380;47.770;11.150;2022-07-23T05:03:02;94901.63;;;22.31;54.71
67545;BME280;54380;47.770;11.150;2022-07-23T05:05:30;94907.28;;;22.39;54.49
67545;BME280;54380;47.770;11.150;2022-07-23T05:08:05;94900.91;;;22.43;54.46
67545;BME280;54380;47.770;11.150;2022-07-23T05:10:35;94903.88;;;22.50;54.36
67545;BME280;54380;47.770;11.150;2022-07-23T05:13:02;94907.34;;;22.60;54.38
67545;BME280;54380;47.770;11.150;2022-07-23T05:15:30;94917.44;;;22.63;54.06
67545;BME280;54380;47.770;11.150;2022-07-23T05:17:57;94920.78;;;22.60;54.27
67545;BME280;54380;47.770;11.150;2022-07-23T05:20:25;94930.59;;;22.55;54.43
67545;BME280;54380;47.770;11.150;2022-07-23T05:22:54;94934.41;;;22.54;54.28
67545;BME280;54380;47.770;11.150;2022-07-23T05:25:20;94942.66;;;22.49;54.35
67545;BME280;54380;47.770;11.150;2022-07-23T05:27:48;94948.22;;;22.44;54.50
67545;BME280;54380;47.770;11.150;2022-07-23T05:30:14;94958.38;;;22.39;54.65
67545;BME280;54380;47.770;11.150;2022-07-23T05:32:44;94976.41;;;22.38;54.66
67545;BME280;54380;47.770;11.150;2022-07-23T05:35:14;94983.53;;;22.34;54.52
67545;BME280;54380;47.770;11.150;2022-07-23T05:37:47;94987.34;;;22.33;54.66
67545;BME280;54380;47.770;11.150;2022-07-23T05:40:15;94988.59;;;22.35;54.79
67545;BME280;54380;47.770;11.150;2022-07-23T05:42:42;94978.94;;;22.34;54.75
67545;BME280;54380;47.770;11.150;2022-07-23T05:45:10;94987.78;;;22.35;54.68
67545;BME280;54380;47.770;11.150;2022-07-23T05:47:42;94996.19;;;22.33;54.91
67545;BME280;54380;47.770;11.150;2022-07-23T05:50:10;95000.16;;;22.27;54.75
67545;BME280;54380;47.770;11.150;2022-07-23T05:52:44;95008.69;;;22.29;54.92
67545;BME280;54380;47.770;11.150;2022-07-23T05:55:30;95016.75;;;22.29;54.85
67545;BME280;54380;47.770;11.150;2022-07-23T05:57:58;95016.94;;;22.33;54.77
67545;BME280;54380;47.770;11.150;2022-07-23T06:00:27;95020.88;;;22.35;54.73
67545;BME280;54380;47.770;11.150;2022-07-23T06:02:54;95026.53;;;22.43;54.92
67545;BME280;54380;47.770;11.150;2022-07-23T06:05:22;95049.13;;;22.50;54.74
67545;BME280;54380;47.770;11.150;2022-07-23T06:07:51;95052.28;;;22.52;54.74
67545;BME280;54380;47.770;11.150;2022-07-23T06:10:20;95073.34;;;22.50;55.00
67545;BME280;54380;47.770;11.150;2022-07-23T06:12:49;95079.53;;;22.42;54.88
67545;BME280;54380;47.770;11.150;2022-07-23T06:15:15;95091.59;;;22.36;54.79
67545;BME280;54380;47.770;11.150;2022-07-23T06:17:42;95082.72;;;22.35;54.75
67545;BME280;54380;47.770;11.150;2022-07-23T06:20:10;95083.34;;;22.41;54.97
67545;BME280;54380;47.770;11.150;2022-07-23T06:22:38;95083.31;;;22.50;55.30
67545;BME280;54380;47.770;11.150;2022-07-23T06:25:06;95083.63;;;22.57;55.32
67545;BME280;54380;47.770;11.150;2022-07-23T06:27:41;95075.03;;;22.64;54.76
67545;BME280;54380;47.770;11.150;2022-07-23T06:30:13;95069.16;;;22.70;55.08
67545;BME280;54380;47.770;11.150;2022-07-23T06:32:43;95065.69;;;22.70;55.59
67545;BME280;54380;47.770;11.150;2022-07-23T06:35:10;95056.19;;;22.64;55.72
67545;BME280;54380;47.770;11.150;2022-07-23T06:37:37;95050.88;;;22.55;56.27
67545;BME280;54380;47.770;11.150;2022-07-23T06:40:05;95063.88;;;22.44;56.53
67545;BME280;54380;47.770;11.150;2022-07-23T06:42:34;95061.53;;;22.34;56.50
67545;BME280;54380;47.770;11.150;2022-07-23T06:45:03;95061.03;;;22.32;56.38
67545;BME280;54380;47.770;11.150;2022-07-23T06:47:32;95063.72;;;22.32;56.72
67545;BME280;54380;47.770;11.150;2022-07-23T06:50:00;95056.16;;;22.34;56.74
67545;BME280;54380;47.770;11.150;2022-07-23T06:52:27;95062.13;;;22.40;56.72
67545;BME280;54380;47.770;11.150;2022-07-23T06:54:53;95056.59;;;22.45;56.69
67545;BME280;54380;47.770;11.150;2022-07-23T06:57:20;95051.81;;;22.50;56.62
67545;BME280;54380;47.770;11.150;2022-07-23T06:59:48;95062.28;;;22.52;56.48
67545;BME280;54380;47.770;11.150;2022-07-23T07:02:21;95058.28;;;22.58;56.24
67545;BME280;54380;47.770;11.150;2022-07-23T07:04:49;95051.47;;;22.61;56.42
67545;BME280;54380;47.770;11.150;2022-07-23T07:07:16;95053.84;;;22.62;56.14
67545;BME280;54380;47.770;11.150;2022-07-23T07:09:43;95051.47;;;22.61;56.13
67545;BME280;54380;47.770;11.150;2022-07-23T07:12:12;95058.94;;;22.55;55.90
67545;BME280;54380;47.770;11.150;2022-07-23T07:14:38;95066.34;;;22.58;55.65
67545;BME280;54380;47.770;11.150;2022-07-23T07:17:05;95080.41;;;22.64;55.66
67545;BME280;54380;47.770;11.150;2022-07-23T07:19:32;95083.28;;;22.67;55.59
67545;BME280;54380;47.770;11.150;2022-07-23T07:22:00;95091.31;;;22.76;55.62
67545;BME280;54380;47.770;11.150;2022-07-23T07:24:27;95077.50;;;22.77;55.46
67545;BME280;54380;47.770;11.150;2022-07-23T07:27:01;95074.97;;;22.81;55.02
67545;BME280;54380;47.770;11.150;2022-07-23T07:29:27;95080.97;;;22.87;54.91
67545;BME280;54380;47.770;11.150;2022-07-23T07:31:54;95082.81;;;22.95;54.46
67545;BME280;54380;47.770;11.150;2022-07-23T07:34:21;95091.69;;;23.04;54.35
67545;BME280;54380;47.770;11.150;2022-07-23T07:36:49;95095.59;;;23.15;54.12
67545;BME280;54380;47.770;11.150;2022-07-23T07:39:20;95084.63;;;23.20;54.28
67545;BME280;54380;47.770;11.150;2022-07-23T07:41:47;95087.63;;;23.28;54.37
67545;BME280;54380;47.770;11.150;2022-07-23T07:44:13;95086.44;;;23.37;54.17
67545;BME280;54380;47.770;11.150;2022-07-23T07:46:40;95085.38;;;23.51;54.16
67545;BME280;54380;47.770;11.150;2022-07-23T07:49:07;95079.78;;;23.64;53.97
67545;BME280;54380;47.770;11.150;2022-07-23T07:51:41;95081.25;;;23.83;54.01
67545;BME280;54380;47.770;11.150;2022-07-23T07:54:10;95086.16;;;24.02;53.80
67545;BME280;54380;47.770;11.150;2022-07-23T07:56:39;95089.56;;;24.11;53.74
67545;BME280;54380;47.770;11.150;2022-07-23T07:59:07;95084.75;;;24.17;53.65
67545;BME280;54380;47.770;11.150;2022-07-23T08:01:34;95085.31;;;24.22;53.30
67545;BME280;54380;47.770;11.150;2022-07-23T08:04:01;95083.53;;;24.26;53.41
67545;BME280;54380;47.770;11.150;2022-07-23T08:06:28;95073.06;;;24.25;52.87
67545;BME280;54380;47.770;11.150;2022-07-23T08:08:55;95073.75;;;24.22;52.93
67545;BME280;54380;47.770;11.150;2022-07-23T08:11:22;95065.22;;;24.20;52.81
67545;BME280;54380;47.770;11.150;2022-07-23T08:13:50;95060.81;;;24.15;52.86
67545;BME280;54380;47.770;11.150;2022-07-23T08:16:17;95073.72;;;24.09;53.06
67545;BME280;54380;47.770;11.150;2022-07-23T08:18:44;95069.31;;;24.05;53.23
67545;BME280;54380;47.770;11.150;2022-07-23T08:21:11;95075.50;;;24.05;53.31
67545;BME280;54380;47.770;11.150;2022-07-23T08:23:38;95077.97;;;24.10;53.20
67545;BME280;54380;47.770;11.150;2022-07-23T08:26:05;95092.03;;;24.16;53.20
67545;BME280;54380;47.770;11.150;2022-07-23T08:28:31;95088.69;;;24.19;53.21
67545;BME280;54380;47.770;11.150;2022-07-23T08:31:03;95092.31;;;24.23;53.37
67545;BME280;54380;47.770;11.150;2022-07-23T08:33:32;95094.66;;;24.25;53.43
67545;BME280;54380;47.770;11.150;2022-07-23T08:36:01;95099.72;;;24.26;53.40
67545;BME280;54380;47.770;11.150;2022-07-23T08:38:30;95101.66;;;24.26;53.47
67545;BME280;54380;47.770;11.150;2022-07-23T08:40:57;95110.41;;;24.23;53.54
67545;BME280;54380;47.770;11.150;2022-07-23T08:43:25;95123.06;;;24.22;53.67
67545;BME280;54380;47.770;11.150;2022-07-23T08:45:54;95120.72;;;24.21;53.84
67545;BME280;54380;47.770;11.150;2022-07-23T08:48:30;95124.22;;;24.21;53.60
67545;BME280;54380;47.770;11.150;2022-07-23T08:51:01;95118.81;;;24.21;54.13
67545;BME280;54380;47.770;11.150;2022-07-23T08:53:29;95122.88;;;24.27;54.30
67545;BME280;54380;47.770;11.150;2022-07-23T08:55:57;95119.53;;;24.30;54.38
67545;BME280;54380;47.770;11.150;2022-07-23T08:58:25;95123.00;;;24.31;55.17
67545;BME280;54380;47.770;11.150;2022-07-23T09:00:54;95114.97;;;24.22;55.28
67545;BME280;54380;47.770;11.150;2022-07-23T09:03:24;95108.69;;;24.18;55.30
67545;BME280;54380;47.770;11.150;2022-07-23T09:05:53;95105.22;;;24.18;55.16
67545;BME280;54380;47.770;11.150;2022-07-23T09:08:21;95114.09;;;24.18;55.35
67545;BME280;54380;47.770;11.150;2022-07-23T09:10:50;95111.72;;;24.17;55.30
67545;BME280;54380;47.770;11.150;2022-07-23T09:13:28;95111.84;;;24.20;55.25
67545;BME280;54380;47.770;11.150;2022-07-23T09:15:57;95107.69;;;24.23;55.12
67545;BME280;54380;47.770;11.150;2022-07-23T09:18:48;95116.03;;;24.30;55.11
67545;BME280;54380;47.770;11.150;2022-07-23T09:21:24;95121.09;;;24.31;55.04
67545;BME280;54380;47.770;11.150;2022-07-23T09:23:57;95116.63;;;24.36;54.75
67545;BME280;54380;47.770;11.150;2022-07-23T09:26:30;95117.34;;;24.45;54.54
67545;BME280;54380;47.770;11.150;2022-07-23T09:29:00;95116.63;;;24.57;54.65
67545;BME280;54380;47.770;11.150;2022-07-23T09:31:32;95109.97;;;24.66;54.16
67545;BME280;54380;47.770;11.150;2022-07-23T09:34:13;95109.91;;;24.75;53.93
67545;BME280;54380;47.770;11.150;2022-07-23T09:36:42;95105.28;;;24.75;53.70
67545;BME280;54380;47.770;11.150;2022-07-23T09:39:10;95100.22;;;24.74;53.66
67545;BME280;54380;47.770;11.150;2022-07-23T09:41:39;95109.78;;;24.71;53.87
67545;BME280;54380;47.770;11.150;2022-07-23T09:44:09;95114.38;;;24.71;53.69
67545;BME280;54380;47.770;11.150;2022-07-23T09:46:37;95104.38;;;24.71;53.87
67545;BME280;54380;47.770;11.150;2022-07-23T09:49:14;95107.22;;;24.75;53.50
67545;BME280;54380;47.770;11.150;2022-07-23T09:51:48;95107.22;;;24.75;53.25
67545;BME280;54380;47.770;11.150;2022-07-23T09:54:24;95110.69;;;24.75;53.79
67545;BME280;54380;47.770;11.150;2022-07-23T09:56:53;95099.53;;;24.77;53.85
67545;BME280;54380;47.770;11.150;2022-07-23T09:59:23;95098.09;;;24.80;54.08
67545;BME280;54380;47.770;11.150;2022-07-23T10:01:52;95107.78;;;24.81;53.93
67545;BME280;54380;47.770;11.150;2022-07-23T10:04:21;95117.53;;;24.85;53.73
67545;BME280;54380;47.770;11.150;2022-07-23T10:07:13;95122.41;;;24.92;54.01
67545;BME280;54380;47.770;11.150;2022-07-23T10:10:07;95122.19;;;24.97;53.78
67545;BME280;54380;47.770;11.150;2022-07-23T10:12:54;95124.31;;;25.04;53.48
67545;BME280;54380;47.770;11.150;2022-07-23T10:15:32;95108.25;;;25.07;53.16
67545;BME280;54380;47.770;11.150;2022-07-23T10:17:59;95105.75;;;25.14;52.79
67545;BME280;54380;47.770;11.150;2022-07-23T10:20:26;95106.81;;;25.22;52.74
67545;BME280;54380;47.770;11.150;2022-07-23T10:23:01;95107.13;;;25.33;52.63
67545;BME280;54380;47.770;11.150;2022-07-23T10:25:36;95099.25;;;25.40;52.17
67545;BME280;54380;47.770;11.150;2022-07-23T10:28:16;95103.41;;;25.50;52.18
67545;BME280;54380;47.770;11.150;2022-07-23T10:30:58;95103.75;;;25.60;52.33
67545;BME280;54380;47.770;11.150;2022-07-23T10:33:32;95098.41;;;25.76;51.97
67545;BME280;54380;47.770;11.150;2022-07-23T10:36:08;95095.25;;;25.87;51.19
67545;BME280;54380;47.770;11.150;2022-07-23T10:38:45;95096.72;;;25.96;50.99
67545;BME280;54380;47.770;11.150;2022-07-23T10:41:14;95099.16;;;26.01;50.59
67545;BME280;54380;47.770;11.150;2022-07-23T10:43:42;95096.47;;;26.01;50.80
67545;BME280;54380;47.770;11.150;2022-07-23T10:46:22;95087.22;;;26.02;50.73
67545;BME280;54380;47.770;11.150;2022-07-23T10:49:25;95099.50;;;26.00;50.69
67545;BME280;54380;47.770;11.150;2022-07-23T10:52:21;95098.19;;;25.94;50.71
67545;BME280;54380;47.770;11.150;2022-07-23T10:54:50;95100.66;;;25.87;50.55
67545;BME280;54380;47.770;11.150;2022-07-23T10:57:18;95097.19;;;25.86;51.28
67545;BME280;54380;47.770;11.150;2022-07-23T11:00:14;95086.78;;;25.88;50.58
67545;BME280;54380;47.770;11.150;2022-07-23T11:02:43;95087.38;;;25.81;50.38
67545;BME280;54380;47.770;11.150;2022-07-23T11:05:13;95078.72;;;25.76;50.09
67545;BME280;54380;47.770;11.150;2022-07-23T11:08:14;95085.59;;;25.73;50.18
67545;BME280;54380;47.770;11.150;2022-07-23T11:10:46;95084.13;;;25.76;50.13
67545;BME280;54380;47.770;11.150;2022-07-23T11:13:38;95089.94;;;25.90;50.34
67545;BME280;54380;47.770;11.150;2022-07-23T11:16:26;95088.44;;;26.05;49.61
67545;BME280;54380;47.770;11.150;2022-07-23T11:19:07;95085.78;;;26.21;50.28
67545;BME280;54380;47.770;11.150;2022-07-23T11:21:45;95085.75;;;26.33;49.53
67545;BME280;54380;47.770;11.150;2022-07-23T11:24:13;95083.44;;;26.35;49.31
67545;BME280;54380;47.770;11.150;2022-07-23T11:26:43;95083.13;;;26.37;48.76
67545;BME280;54380;47.770;11.150;2022-07-23T11:29:40;95090.53;;;26.40;48.79
67545;BME280;54380;47.770;11.150;2022-07-23T11:32:25;95088.28;;;26.42;48.82
67545;BME280;54380;47.770;11.150;2022-07-23T11:34:54;95076.69;;;26.41;48.65
67545;BME280;54380;47.770;11.150;2022-07-23T11:37:31;95076.75;;;26.45;48.30
67545;BME280;54380;47.770;11.150;2022-07-23T11:40:04;95080.50;;;26.40;48.66
67545;BME280;54380;47.770;11.150;2022-07-23T11:42:35;95078.50;;;26.37;48.31
67545;BME280;54380;47.770;11.150;2022-07-23T11:45:02;95077.78;;;26.40;48.18
67545;BME280;54380;47.770;11.150;2022-07-23T11:47:29;95068.09;;;26.52;48.42
67545;BME280;54380;47.770;11.150;2022-07-23T11:49:57;95074.19;;;26.64;48.24
67545;BME280;54380;47.770;11.150;2022-07-23T11:52:26;95077.53;;;26.74;48.37
67545;BME280;54380;47.770;11.150;2022-07-23T11:54:55;95066.44;;;26.79;48.56
67545;BME280;54380;47.770;11.150;2022-07-23T11:57:23;95074.81;;;26.74;48.49
67545;BME280;54380;47.770;11.150;2022-07-23T11:59:55;95069.41;;;26.74;48.32
67545;BME280;54380;47.770;11.150;2022-07-23T12:02:24;95062.31;;;26.69;48.29
67545;BME280;54380;47.770;11.150;2022-07-23T12:04:52;95063.03;;;26.66;48.15
67545;BME280;54380;47.770;11.150;2022-07-23T12:07:25;95063.72;;;26.63;48.23
67545;BME280;54380;47.770;11.150;2022-07-23T12:09:52;95059.34;;;26.58;48.06
67545;BME280;54380;47.770;11.150;2022-07-23T12:12:20;95065.78;;;26.54;47.90
67545;BME280;54380;47.770;11.150;2022-07-23T12:14:48;95063.75;;;26.50;48.18
67545;BME280;54380;47.770;11.150;2022-07-23T12:17:17;95056.78;;;26.49;48.02
67545;BME280;54380;47.770;11.150;2022-07-23T12:19:44;95060.44;;;26.41;48.21
67545;BME280;54380;47.770;11.150;2022-07-23T12:22:12;95069.22;;;26.38;48.13
67545;BME280;54380;47.770;11.150;2022-07-23T12:24:54;95064.25;;;26.40;48.09
67545;BME280;54380;47.770;11.150;2022-07-23T12:27:22;95062.94;;;26.34;48.42
67545;BME280;54380;47.770;11.150;2022-07-23T12:29:49;95070.97;;;26.31;47.87
67545;BME280;54380;47.770;11.150;2022-07-23T12:32:19;95063.13;;;26.25;46.60
67545;BME280;54380;47.770;11.150;2022-07-23T12:34:48;95062.84;;;26.15;47.33
67545;BME280;54380;47.770;11.150;2022-07-23T12:37:27;95058.69;;;26.05;47.33
67545;BME280;54380;47.770;11.150;2022-07-23T12:39:54;95068.63;;;26.01;47.33
67545;BME280;54380;47.770;11.150;2022-07-23T12:42:20;95072.13;;;26.01;47.42
67545;BME280;54380;47.770;11.150;2022-07-23T12:45:05;95063.13;;;25.97;46.96
67545;BME280;54380;47.770;11.150;2022-07-23T12:47:52;95064.50;;;25.91;46.51
67545;BME280;54380;47.770;11.150;2022-07-23T12:53:13;95057.41;;;25.87;46.65
67545;BME280;54380;47.770;11.150;2022-07-23T12:55:50;95052.66;;;25.83;46.93
67545;BME280;54380;47.770;11.150;2022-07-23T12:58:44;95059.34;;;25.74;46.86
67545;BME280;54380;47.770;11.150;2022-07-23T13:01:25;95053.84;;;25.70;46.84
67545;BME280;54380;47.770;11.150;2022-07-23T13:04:02;95052.25;;;25.69;46.94
67545;BME280;54380;47.770;11.150;2022-07-23T13:06:51;95059.81;;;25.63;46.95
67545;BME280;54380;47.770;11.150;2022-07-23T13:09:20;95061.28;;;25.61;46.80